Time;durP1;ratioP1;P1;durP2;ratioP2;P2;SDS_P1;SDS_P2;PMS_P1;PMS_P2;Temp;Humidity;BMP_temperature;BMP_pressure;BME280_temperature;BME280_humidity;BME280_pressure;Samples;Min_cycle;Max_cycle;Signal;HPM_P1;HPM_P2
2021/12/26 00:00:48;;;;;;;;;;;-4.90;99.90;;;;;;5033763;28;20407;-39
2021/12/26 00:03:14;;;;;;;;;;;-4.90;99.90;;;;;;5033206;28;20616;-39
2021/12/26 00:05:39;;;;;;;;;;;-4.90;99.90;;;;;;5029831;28;19920;-39
2021/12/26 00:08:05;;;;;;;;;;;-4.90;99.60;;;;;;5033769;28;19912;-39
2021/12/26 00:10:31;;;;;;;;;;;-4.90;99.60;;;;;;5033163;28;20299;-39
2021/12/26 00:12:57;;;;;;;;;;;-4.90;99.40;;;;;;5033482;28;20280;-39
2021/12/26 00:15:23;;;;;;;;;;;-5.00;99.40;;;;;;5017564;28;20257;-40
2021/12/26 00:17:48;;;;;;;;;;;-5.00;99.60;;;;;;5013223;28;20353;-39
2021/12/26 00:20:14;;;;;;;;;;;-5.00;99.80;;;;;;5013757;28;19916;-39
2021/12/26 00:22:40;;;;;;;;;;;-5.00;99.60;;;;;;5013733;28;19915;-39
2021/12/26 00:25:05;;;;;;;;;;;-5.00;99.00;;;;;;5025382;28;20004;-38
2021/12/26 00:27:31;;;;;;;;;;;-5.00;99.20;;;;;;5033406;28;19905;-40
2021/12/26 00:29:56;;;;;;;;;;;-5.00;98.80;;;;;;5033479;28;19909;-39
2021/12/26 00:32:22;;;;;;;;;;;-5.00;98.50;;;;;;5032664;28;19912;-39
2021/12/26 00:34:50;;;;;;;;;;;-5.00;98.60;;;;;;5023228;28;19916;-39
2021/12/26 00:37:16;;;;;;;;;;;-5.00;98.60;;;;;;5013679;28;19909;-38
2021/12/26 00:39:41;;;;;;;;;;;-5.00;98.40;;;;;;5017076;28;19990;-39
2021/12/26 00:42:07;;;;;;;;;;;-5.00;98.50;;;;;;5017641;28;19906;-39
2021/12/26 00:44:38;;;;;;;;;;;-5.00;98.60;;;;;;5024957;28;19909;-39
2021/12/26 00:47:04;;;;;;;;;;;-5.00;98.70;;;;;;5036956;28;19912;-39
2021/12/26 00:49:30;;;;;;;;;;;-5.10;99.00;;;;;;5037355;28;20312;-39
2021/12/26 00:51:55;;;;;;;;;;;-5.10;99.00;;;;;;5037379;28;19944;-39
2021/12/26 00:54:21;;;;;;;;;;;-5.20;98.90;;;;;;5034985;28;20368;-39
2021/12/26 00:56:47;;;;;;;;;;;-5.20;98.50;;;;;;5036986;28;20364;-39
2021/12/26 00:59:12;;;;;;;;;;;-5.20;98.70;;;;;;5036793;28;20414;-38
2021/12/26 01:01:38;;;;;;;;;;;-5.20;98.60;;;;;;5036553;28;20000;-39
2021/12/26 01:04:03;;;;;;;;;;;-5.20;98.50;;;;;;5034514;28;20020;-38
2021/12/26 01:06:29;;;;;;;;;;;-5.20;98.80;;;;;;5016774;28;20237;-39
2021/12/26 01:08:55;;;;;;;;;;;-5.20;98.80;;;;;;5017224;28;19905;-39
2021/12/26 01:11:33;;;;;;;;;;;-5.20;99.20;;;;;;5017077;28;19906;-39
2021/12/26 01:13:59;;;;;;;;;;;-5.30;98.40;;;;;;5016992;28;19967;-40
2021/12/26 01:16:26;;;;;;;;;;;-5.30;98.30;;;;;;5036355;28;19909;-38
2021/12/26 01:18:55;;;;;;;;;;;-5.20;98.10;;;;;;5036935;28;20007;-39
2021/12/26 01:21:25;;;;;;;;;;;-5.10;97.90;;;;;;5036292;28;19932;-38
2021/12/26 01:23:52;;;;;;;;;;;-5.20;97.30;;;;;;5036808;28;19996;-39
2021/12/26 01:26:18;;;;;;;;;;;-5.20;97.00;;;;;;5035745;28;19909;-39
2021/12/26 01:28:44;;;;;;;;;;;-5.20;97.10;;;;;;5036193;28;20360;-39
2021/12/26 01:31:09;;;;;;;;;;;-5.20;97.20;;;;;;5036720;28;19905;-38
2021/12/26 01:33:35;;;;;;;;;;;-5.20;96.90;;;;;;5036480;28;19905;-39
2021/12/26 01:36:00;;;;;;;;;;;-5.20;97.10;;;;;;5016871;28;20342;-39
2021/12/26 01:38:26;;;;;;;;;;;-5.20;97.20;;;;;;5016476;28;19910;-38
2021/12/26 01:40:53;;;;;;;;;;;-5.20;96.80;;;;;;5016578;28;20426;-39
2021/12/26 01:43:19;;;;;;;;;;;-5.20;96.80;;;;;;5015912;28;20268;-39
2021/12/26 01:45:46;;;;;;;;;;;-5.30;96.70;;;;;;5032366;28;19916;-39
2021/12/26 01:48:12;;;;;;;;;;;-5.20;96.70;;;;;;5036420;28;19905;-39
2021/12/26 01:50:38;;;;;;;;;;;-5.30;96.40;;;;;;5035606;28;19908;-39
2021/12/26 01:53:05;;;;;;;;;;;-5.30;96.60;;;;;;5035198;28;19927;-39
2021/12/26 01:55:45;;;;;;;;;;;-5.30;96.80;;;;;;5034274;28;19971;-38
2021/12/26 01:58:13;;;;;;;;;;;-5.30;96.80;;;;;;5036187;28;19917;-38
2021/12/26 02:00:39;;;;;;;;;;;-5.30;96.10;;;;;;5035990;28;19909;-39
2021/12/26 02:03:05;;;;;;;;;;;-5.30;96.60;;;;;;5035385;28;19905;-38
2021/12/26 02:05:30;;;;;;;;;;;-5.30;96.10;;;;;;5033950;28;19905;-39
2021/12/26 02:07:56;;;;;;;;;;;-5.30;96.20;;;;;;5035543;28;20249;-40
2021/12/26 02:10:21;;;;;;;;;;;-5.30;96.10;;;;;;5033508;28;19912;-40
2021/12/26 02:12:46;;;;;;;;;;;-5.30;96.10;;;;;;5035672;28;19971;-39
2021/12/26 02:15:12;;;;;;;;;;;-5.30;96.20;;;;;;5025684;28;20000;-39
2021/12/26 02:17:37;;;;;;;;;;;-5.30;95.70;;;;;;5015491;28;20359;-38
2021/12/26 02:20:23;;;;;;;;;;;-5.30;95.70;;;;;;5015850;28;19913;-39
2021/12/26 02:22:56;;;;;;;;;;;-5.30;95.90;;;;;;5015978;28;19909;-38
2021/12/26 02:28:16;;;;;;;;;;;-5.30;95.60;;;;;;5050596;28;19916;-39
2021/12/26 02:30:42;;;;;;;;;;;-5.30;95.80;;;;;;5035468;28;19967;-39
2021/12/26 02:33:11;;;;;;;;;;;-5.30;95.90;;;;;;5035280;28;20321;-38
2021/12/26 02:35:37;;;;;;;;;;;-5.40;95.50;;;;;;5022431;28;19906;-38
2021/12/26 02:38:02;;;;;;;;;;;-5.40;95.60;;;;;;5014970;28;19917;-38
2021/12/26 02:40:28;;;;;;;;;;;-5.40;95.50;;;;;;5015504;28;19906;-39
2021/12/26 02:42:53;;;;;;;;;;;-5.40;95.40;;;;;;5015477;28;19906;-39
2021/12/26 02:45:19;;;;;;;;;;;-5.40;95.60;;;;;;5024532;28;20371;-39
2021/12/26 02:47:46;;;;;;;;;;;-5.40;95.40;;;;;;5035077;28;19958;-39
2021/12/26 02:50:14;;;;;;;;;;;-5.40;95.70;;;;;;5034827;28;19905;-39
2021/12/26 02:52:39;;;;;;;;;;;-5.50;95.50;;;;;;5034597;28;20370;-38
2021/12/26 02:55:05;;;;;;;;;;;-5.50;95.60;;;;;;5024489;28;19905;-39
2021/12/26 02:57:31;;;;;;;;;;;-5.50;95.70;;;;;;5014874;28;19917;-38
2021/12/26 02:59:59;;;;;;;;;;;-5.50;96.00;;;;;;5014541;28;19917;-39
2021/12/26 03:02:25;;;;;;;;;;;-5.50;96.10;;;;;;5014552;28;19905;-38
2021/12/26 03:04:50;;;;;;;;;;;-5.50;96.30;;;;;;5022803;28;20004;-39
2021/12/26 03:07:16;;;;;;;;;;;-5.50;96.30;;;;;;5033926;28;19944;-39
2021/12/26 03:09:46;;;;;;;;;;;-5.60;96.40;;;;;;5034635;28;20000;-38
2021/12/26 03:12:12;;;;;;;;;;;-5.60;96.20;;;;;;5034765;28;19959;-39
2021/12/26 03:14:38;;;;;;;;;;;-5.60;96.30;;;;;;5025105;28;19909;-38
2021/12/26 03:17:04;;;;;;;;;;;-5.60;96.30;;;;;;5014718;28;19912;-39
2021/12/26 03:19:36;;;;;;;;;;;-5.60;96.20;;;;;;5014773;28;20356;-39
2021/12/26 03:22:02;;;;;;;;;;;-5.60;96.20;;;;;;5014295;28;19906;-39
2021/12/26 03:24:27;;;;;;;;;;;-5.60;96.30;;;;;;5021573;28;20233;-39
2021/12/26 03:27:00;;;;;;;;;;;-5.60;96.40;;;;;;5034379;28;19912;-39
2021/12/26 03:29:26;;;;;;;;;;;-5.60;96.70;;;;;;5034145;28;19912;-39
2021/12/26 03:31:52;;;;;;;;;;;-5.60;96.80;;;;;;5034422;28;19905;-39
2021/12/26 03:34:17;;;;;;;;;;;-5.60;96.60;;;;;;5025440;28;20047;-38
2021/12/26 03:36:43;;;;;;;;;;;-5.60;96.50;;;;;;5014381;28;19941;-39
2021/12/26 03:39:08;;;;;;;;;;;-5.60;96.60;;;;;;5014383;28;19917;-39
2021/12/26 03:41:34;;;;;;;;;;;-5.60;96.20;;;;;;5013752;28;19906;-39
2021/12/26 03:44:00;;;;;;;;;;;-5.60;96.30;;;;;;5019435;28;19917;-38
2021/12/26 03:46:25;;;;;;;;;;;-5.60;96.30;;;;;;5034073;28;20060;-38
2021/12/26 03:48:50;;;;;;;;;;;-5.60;96.30;;;;;;5033663;28;19905;-39
2021/12/26 03:51:18;;;;;;;;;;;-5.60;96.40;;;;;;5033947;28;19908;-39
2021/12/26 03:53:44;;;;;;;;;;;-5.60;96.10;;;;;;5032201;28;19931;-39
2021/12/26 03:56:09;;;;;;;;;;;-5.60;96.10;;;;;;5033072;28;20356;-39
2021/12/26 03:58:35;;;;;;;;;;;-5.60;95.80;;;;;;5033744;28;19917;-39
2021/12/26 04:01:00;;;;;;;;;;;-5.60;95.90;;;;;;5033877;28;19955;-39
2021/12/26 04:03:26;;;;;;;;;;;-5.70;95.60;;;;;;5032477;28;20344;-39
2021/12/26 04:05:51;;;;;;;;;;;-5.70;95.60;;;;;;5014060;28;19905;-39
2021/12/26 04:08:17;;;;;;;;;;;-5.70;95.80;;;;;;5013943;28;20341;-39
2021/12/26 04:10:42;;;;;;;;;;;-5.70;95.80;;;;;;5024061;28;19909;-39
2021/12/26 04:13:08;;;;;;;;;;;-5.70;95.80;;;;;;5032758;28;20394;-41
2021/12/26 04:15:33;;;;;;;;;;;-5.80;95.70;;;;;;5016079;28;19910;-39
2021/12/26 04:18:00;;;;;;;;;;;-5.80;96.00;;;;;;5013368;28;19911;-39
2021/12/26 04:20:26;;;;;;;;;;;-5.80;96.40;;;;;;5013784;28;19928;-39
2021/12/26 04:22:51;;;;;;;;;;;-5.80;96.50;;;;;;5013953;28;20234;-39
2021/12/26 04:25:18;;;;;;;;;;;-5.80;96.60;;;;;;5027656;28;20015;-39
2021/12/26 04:27:43;;;;;;;;;;;-5.80;96.70;;;;;;5033539;28;19912;-39
2021/12/26 04:30:10;;;;;;;;;;;-5.80;96.90;;;;;;5033498;28;19905;-39
2021/12/26 04:32:36;;;;;;;;;;;-5.80;97.00;;;;;;5026504;28;19914;-39
2021/12/26 04:35:01;;;;;;;;;;;-5.80;96.90;;;;;;5013504;28;20352;-39
2021/12/26 04:37:27;;;;;;;;;;;-5.80;96.60;;;;;;5013157;28;19952;-39
2021/12/26 04:39:52;;;;;;;;;;;-5.80;96.40;;;;;;5013505;28;20439;-38
2021/12/26 04:42:18;;;;;;;;;;;-5.80;96.60;;;;;;5015658;28;19955;-39
2021/12/26 04:44:44;;;;;;;;;;;-5.80;97.00;;;;;;5032917;28;19947;-38
2021/12/26 04:47:09;;;;;;;;;;;-5.80;97.00;;;;;;5033421;28;20344;-39
2021/12/26 04:49:35;;;;;;;;;;;-5.80;96.90;;;;;;5033096;28;19916;-39
2021/12/26 04:52:00;;;;;;;;;;;-5.80;97.10;;;;;;5031142;28;20003;-39
2021/12/26 04:54:26;;;;;;;;;;;-5.80;97.00;;;;;;5033262;28;19905;-39
2021/12/26 04:56:51;;;;;;;;;;;-5.80;96.70;;;;;;5032824;28;19924;-39
2021/12/26 04:59:17;;;;;;;;;;;-5.80;96.70;;;;;;5032600;28;20008;-40
2021/12/26 05:01:42;;;;;;;;;;;-5.80;96.60;;;;;;5021904;28;20365;-39
2021/12/26 05:04:09;;;;;;;;;;;-5.90;96.80;;;;;;5013376;28;19905;-39
2021/12/26 05:06:35;;;;;;;;;;;-5.80;97.20;;;;;;5012815;28;19913;-39
2021/12/26 05:09:00;;;;;;;;;;;-5.90;97.00;;;;;;5013337;28;19905;-39
2021/12/26 05:11:26;;;;;;;;;;;-5.90;96.40;;;;;;5020467;28;20304;-38
2021/12/26 05:13:51;;;;;;;;;;;-6.00;95.80;;;;;;5032657;28;19911;-38
2021/12/26 05:16:16;;;;;;;;;;;-6.00;95.80;;;;;;5033012;28;20391;-39
2021/12/26 05:18:42;;;;;;;;;;;-6.00;95.90;;;;;;5032896;28;19956;-39
2021/12/26 05:21:07;;;;;;;;;;;-6.00;96.20;;;;;;5027690;28;19909;-39
2021/12/26 05:23:33;;;;;;;;;;;-6.10;96.70;;;;;;5013539;28;19986;-40
2021/12/26 05:25:58;;;;;;;;;;;-6.10;96.70;;;;;;5016925;28;19960;-40
2021/12/26 05:28:24;;;;;;;;;;;-6.10;97.00;;;;;;5016285;28;19909;-39
2021/12/26 05:30:49;;;;;;;;;;;-6.10;97.30;;;;;;5018105;28;20412;-38
2021/12/26 05:33:15;;;;;;;;;;;-6.10;97.10;;;;;;5036637;28;19951;-39
2021/12/26 05:35:41;;;;;;;;;;;-6.10;97.00;;;;;;5036026;28;19991;-40
2021/12/26 05:38:06;;;;;;;;;;;-6.00;97.00;;;;;;5036024;28;19905;-39
2021/12/26 05:40:32;;;;;;;;;;;-6.00;96.30;;;;;;5036378;28;19959;-40
2021/12/26 05:42:57;;;;;;;;;;;-6.00;95.70;;;;;;5016864;28;20315;-39
2021/12/26 05:45:23;;;;;;;;;;;-6.00;95.60;;;;;;5016605;28;19905;-39
2021/12/26 05:47:48;;;;;;;;;;;-6.00;95.90;;;;;;5016036;28;19906;-39
2021/12/26 05:50:16;;;;;;;;;;;-6.00;95.90;;;;;;5016522;28;19988;-39
2021/12/26 05:52:41;;;;;;;;;;;-6.00;96.70;;;;;;5017493;28;19909;-38
2021/12/26 05:55:07;;;;;;;;;;;-6.00;96.80;;;;;;5015759;28;20418;-39
2021/12/26 05:57:33;;;;;;;;;;;-6.00;97.00;;;;;;5017002;28;19989;-39
2021/12/26 05:59:59;;;;;;;;;;;-6.00;97.30;;;;;;5016271;28;20406;-39
2021/12/26 06:02:24;;;;;;;;;;;-6.00;97.50;;;;;;5015826;28;19906;-39
2021/12/26 06:04:49;;;;;;;;;;;-6.10;97.80;;;;;;5016307;28;19906;-39
2021/12/26 06:07:15;;;;;;;;;;;-6.10;97.70;;;;;;5016193;28;20244;-39
2021/12/26 06:09:41;;;;;;;;;;;-6.10;98.00;;;;;;5034868;28;19909;-39
2021/12/26 06:12:07;;;;;;;;;;;-6.10;98.10;;;;;;5035727;28;19905;-39
2021/12/26 06:14:32;;;;;;;;;;;-6.10;98.10;;;;;;5035794;28;19959;-40
2021/12/26 06:16:57;;;;;;;;;;;-6.10;97.60;;;;;;5035186;28;20383;-40
2021/12/26 06:19:23;;;;;;;;;;;-6.00;97.60;;;;;;5018329;28;19925;-40
2021/12/26 06:21:48;;;;;;;;;;;-6.00;97.50;;;;;;5015976;28;19905;-39
2021/12/26 06:24:14;;;;;;;;;;;-6.00;97.00;;;;;;5015344;28;19905;-40
2021/12/26 06:26:39;;;;;;;;;;;-6.00;96.80;;;;;;5015764;28;19952;-40
2021/12/26 06:29:05;;;;;;;;;;;-6.00;97.10;;;;;;5029889;28;19909;-40
2021/12/26 06:31:30;;;;;;;;;;;-5.90;97.20;;;;;;5034906;28;19905;-41
2021/12/26 06:33:56;;;;;;;;;;;-6.00;97.20;;;;;;5035417;28;19905;-40
2021/12/26 06:36:21;;;;;;;;;;;-5.90;97.10;;;;;;5034485;28;19912;-40
2021/12/26 06:38:47;;;;;;;;;;;-5.90;97.30;;;;;;5022847;28;19971;-40
2021/12/26 06:41:14;;;;;;;;;;;-5.90;97.40;;;;;;5015498;28;19992;-40
2021/12/26 06:43:40;;;;;;;;;;;-5.90;97.40;;;;;;5015369;28;20384;-39
2021/12/26 06:46:07;;;;;;;;;;;-5.90;96.90;;;;;;5008741;28;19909;-41
2021/12/26 06:48:33;;;;;;;;;;;-5.90;96.90;;;;;;5008800;28;20000;-40
2021/12/26 06:51:00;;;;;;;;;;;-5.90;96.70;;;;;;5003565;28;19909;-40
2021/12/26 06:53:25;;;;;;;;;;;-5.90;96.80;;;;;;5005300;28;19905;-40
2021/12/26 06:55:50;;;;;;;;;;;-5.90;96.60;;;;;;5005049;28;19913;-40
2021/12/26 06:58:16;;;;;;;;;;;-5.90;96.70;;;;;;5011422;28;19960;-40
2021/12/26 07:00:42;;;;;;;;;;;-5.90;96.50;;;;;;5006660;28;19905;-39
2021/12/26 07:03:08;;;;;;;;;;;-5.90;96.60;;;;;;5004770;28;19909;-39
2021/12/26 07:05:33;;;;;;;;;;;-5.90;96.80;;;;;;5009100;28;20276;-40
2021/12/26 07:07:59;;;;;;;;;;;-5.90;97.00;;;;;;5008886;28;19906;-40
2021/12/26 07:10:24;;;;;;;;;;;-5.90;96.90;;;;;;5007451;28;19910;-40
2021/12/26 07:12:50;;;;;;;;;;;-5.90;97.10;;;;;;5007108;28;19910;-40
2021/12/26 07:15:16;;;;;;;;;;;-5.80;96.70;;;;;;5003587;28;19909;-40
2021/12/26 07:17:41;;;;;;;;;;;-5.80;96.50;;;;;;5005431;28;20375;-41
2021/12/26 07:20:08;;;;;;;;;;;-5.80;96.50;;;;;;5007919;28;19921;-40
2021/12/26 07:22:34;;;;;;;;;;;-5.80;96.30;;;;;;5005311;28;19906;-40
2021/12/26 07:24:59;;;;;;;;;;;-5.70;96.40;;;;;;5003247;28;19906;-39
2021/12/26 07:27:25;;;;;;;;;;;-5.70;96.30;;;;;;5004267;28;19955;-40
2021/12/26 07:29:50;;;;;;;;;;;-5.70;96.30;;;;;;5007258;28;19932;-40
2021/12/26 07:32:16;;;;;;;;;;;-5.70;96.00;;;;;;5005330;28;19913;-40
2021/12/26 07:34:41;;;;;;;;;;;-5.60;96.10;;;;;;5002877;28;20236;-40
2021/12/26 07:37:07;;;;;;;;;;;-5.60;95.60;;;;;;5003425;28;19909;-40
2021/12/26 07:39:33;;;;;;;;;;;-5.60;95.50;;;;;;5007670;28;19917;-40
2021/12/26 07:41:58;;;;;;;;;;;-5.60;95.60;;;;;;5006430;28;19912;-39
2021/12/26 07:44:24;;;;;;;;;;;-5.60;95.80;;;;;;5003887;28;20402;-39
2021/12/26 07:46:50;;;;;;;;;;;-5.60;95.90;;;;;;5003264;28;19906;-39
2021/12/26 07:49:16;;;;;;;;;;;-5.60;95.50;;;;;;5005422;28;19913;-40
2021/12/26 07:51:43;;;;;;;;;;;-5.50;95.60;;;;;;5003867;28;19905;-41
2021/12/26 07:54:09;;;;;;;;;;;-5.50;96.10;;;;;;5003379;28;20281;-40
2021/12/26 07:56:34;;;;;;;;;;;-5.50;96.40;;;;;;5001133;28;19918;-40
2021/12/26 07:59:00;;;;;;;;;;;-5.50;96.30;;;;;;5004027;28;19913;-40
2021/12/26 08:01:26;;;;;;;;;;;-5.50;96.00;;;;;;5005673;28;20230;-40
2021/12/26 08:03:52;;;;;;;;;;;-5.40;95.80;;;;;;4994942;28;20357;-40
2021/12/26 08:06:19;;;;;;;;;;;-5.40;95.80;;;;;;4993729;28;19956;-40
2021/12/26 08:08:47;;;;;;;;;;;-5.40;95.80;;;;;;5008169;28;19910;-40
2021/12/26 08:11:14;;;;;;;;;;;-5.30;95.70;;;;;;5013288;28;20379;-40
2021/12/26 08:13:39;;;;;;;;;;;-5.30;95.70;;;;;;5012929;28;19966;-40
2021/12/26 08:16:05;;;;;;;;;;;-5.20;95.80;;;;;;5012823;28;20356;-40
2021/12/26 08:18:30;;;;;;;;;;;-5.20;95.40;;;;;;5013163;28;19920;-40
2021/12/26 08:20:56;;;;;;;;;;;-5.10;95.00;;;;;;5012827;28;20276;-40
2021/12/26 08:23:22;;;;;;;;;;;-5.00;95.20;;;;;;5012118;28;19951;-40
2021/12/26 08:25:47;;;;;;;;;;;-5.00;95.30;;;;;;5013063;28;19909;-40
2021/12/26 08:28:14;;;;;;;;;;;-5.00;95.40;;;;;;5013080;28;20296;-41
2021/12/26 08:30:40;;;;;;;;;;;-4.90;95.40;;;;;;5013660;28;20323;-40
2021/12/26 08:33:07;;;;;;;;;;;-4.90;95.40;;;;;;5009937;28;19906;-40
2021/12/26 08:35:33;;;;;;;;;;;-4.80;95.60;;;;;;5002671;28;19906;-40
2021/12/26 08:37:59;;;;;;;;;;;-4.80;95.60;;;;;;5002083;28;19910;-40
2021/12/26 08:40:24;;;;;;;;;;;-4.70;95.00;;;;;;5003092;28;19925;-40
2021/12/26 08:42:50;;;;;;;;;;;-4.60;94.70;;;;;;5002023;28;19905;-40
2021/12/26 08:45:15;;;;;;;;;;;-4.60;94.10;;;;;;5003328;28;19919;-39
2021/12/26 08:47:41;;;;;;;;;;;-4.50;93.90;;;;;;5002044;28;19916;-40
2021/12/26 08:50:07;;;;;;;;;;;-4.50;94.50;;;;;;5001708;28;19932;-40
2021/12/26 08:52:33;;;;;;;;;;;-4.40;93.70;;;;;;5005270;28;19906;-39
2021/12/26 08:54:58;;;;;;;;;;;-4.40;93.80;;;;;;5004660;28;19972;-40
2021/12/26 08:57:24;;;;;;;;;;;-4.30;93.80;;;;;;5004038;28;19979;-40
2021/12/26 08:59:49;;;;;;;;;;;-4.30;93.60;;;;;;5004340;28;19924;-40
2021/12/26 09:02:15;;;;;;;;;;;-4.20;93.30;;;;;;5005966;28;20012;-40
2021/12/26 09:04:40;;;;;;;;;;;-4.20;92.50;;;;;;5004501;28;19916;-40
2021/12/26 09:07:07;;;;;;;;;;;-4.10;93.30;;;;;;5004153;28;20257;-40
2021/12/26 09:09:33;;;;;;;;;;;-4.10;93.40;;;;;;4997060;28;19906;-40
2021/12/26 09:11:59;;;;;;;;;;;-4.00;93.00;;;;;;4996315;28;19917;-40
2021/12/26 09:14:25;;;;;;;;;;;-3.90;92.40;;;;;;5007106;28;20005;-40
2021/12/26 09:16:51;;;;;;;;;;;-3.90;92.30;;;;;;5016179;28;19956;-40
2021/12/26 09:19:16;;;;;;;;;;;-3.80;92.40;;;;;;5015961;28;19975;-40
2021/12/26 09:21:41;;;;;;;;;;;-3.80;91.90;;;;;;5016346;28;19910;-40
2021/12/26 09:24:07;;;;;;;;;;;-3.70;91.90;;;;;;5016461;28;19917;-39
2021/12/26 09:26:33;;;;;;;;;;;-3.60;92.10;;;;;;5015821;28;19906;-40
2021/12/26 09:28:58;;;;;;;;;;;-3.60;92.10;;;;;;5016192;28;19905;-40
2021/12/26 09:31:24;;;;;;;;;;;-3.50;91.40;;;;;;5009599;28;19909;-40
2021/12/26 09:33:50;;;;;;;;;;;-3.40;92.20;;;;;;5003987;28;19909;-39
2021/12/26 09:36:17;;;;;;;;;;;-3.30;91.90;;;;;;5005915;28;19905;-40
2021/12/26 09:38:42;;;;;;;;;;;-3.30;91.70;;;;;;5005727;28;19939;-39
2021/12/26 09:41:08;;;;;;;;;;;-3.20;92.20;;;;;;5007591;28;20275;-40
2021/12/26 09:43:33;;;;;;;;;;;-3.10;91.80;;;;;;5013516;28;19960;-41
2021/12/26 09:45:59;;;;;;;;;;;-3.10;91.10;;;;;;5010651;28;19914;-39
2021/12/26 09:48:24;;;;;;;;;;;-3.00;91.80;;;;;;5007408;28;19906;-40
2021/12/26 09:50:50;;;;;;;;;;;-2.90;92.60;;;;;;5006762;28;20004;-40
2021/12/26 09:53:15;;;;;;;;;;;-2.90;92.90;;;;;;5010374;28;19909;-39
2021/12/26 09:55:41;;;;;;;;;;;-2.80;93.30;;;;;;5006744;28;19909;-40
2021/12/26 09:58:06;;;;;;;;;;;-2.70;93.00;;;;;;5014562;28;19952;-39
2021/12/26 10:00:34;;;;;;;;;;;-2.60;92.70;;;;;;5010131;28;20040;-40
2021/12/26 10:03:11;;;;;;;;;;;-2.50;93.50;;;;;;5004872;28;19959;-40
2021/12/26 10:05:57;;;;;;;;;;;-2.40;93.20;;;;;;5005270;28;19910;-40
2021/12/26 10:08:22;;;;;;;;;;;-2.40;92.80;;;;;;5008519;28;19905;-40
2021/12/26 10:11:07;;;;;;;;;;;-2.30;91.10;;;;;;5005651;28;19978;-40
2021/12/26 10:13:35;;;;;;;;;;;-2.20;92.30;;;;;;5009250;28;19936;-40
2021/12/26 10:16:02;;;;;;;;;;;-2.10;90.50;;;;;;5005601;28;19933;-39
2021/12/26 10:18:28;;;;;;;;;;;-2.00;91.00;;;;;;5006479;28;20407;-39
2021/12/26 10:20:53;;;;;;;;;;;-1.90;92.00;;;;;;5010121;28;20019;-40
2021/12/26 10:23:25;;;;;;;;;;;-1.80;92.20;;;;;;5003112;28;19991;-40
2021/12/26 10:25:51;;;;;;;;;;;-1.80;91.30;;;;;;5002549;28;20345;-39
2021/12/26 10:28:16;;;;;;;;;;;-1.70;91.70;;;;;;5004843;28;19927;-40
2021/12/26 10:30:42;;;;;;;;;;;-1.50;92.40;;;;;;5002515;28;19933;-40
2021/12/26 10:33:08;;;;;;;;;;;-1.40;92.20;;;;;;5003275;28;19905;-40
2021/12/26 10:35:33;;;;;;;;;;;-1.40;92.40;;;;;;5004771;28;19906;-39
2021/12/26 10:37:58;;;;;;;;;;;-1.30;92.40;;;;;;5011697;28;19906;-40
2021/12/26 10:40:26;;;;;;;;;;;-1.20;92.80;;;;;;5014000;28;19960;-39
2021/12/26 10:42:53;;;;;;;;;;;-1.10;93.00;;;;;;5013806;28;20008;-40
2021/12/26 10:45:20;;;;;;;;;;;-1.00;92.30;;;;;;5013373;28;20017;-40
2021/12/26 10:47:49;;;;;;;;;;;-1.00;90.60;;;;;;5011819;28;19905;-40
2021/12/26 10:50:18;;;;;;;;;;;-0.90;90.80;;;;;;4994232;28;19906;-40
2021/12/26 10:53:02;;;;;;;;;;;-0.80;90.70;;;;;;4994783;28;19941;-40
2021/12/26 10:55:30;;;;;;;;;;;-0.70;88.60;;;;;;4995156;28;19912;-40
2021/12/26 10:57:57;;;;;;;;;;;-0.70;89.20;;;;;;5006973;28;19917;-39
2021/12/26 11:00:27;;;;;;;;;;;-0.60;88.30;;;;;;5014421;28;20372;-40
2021/12/26 11:02:54;;;;;;;;;;;-0.50;88.00;;;;;;5014242;28;19905;-39
2021/12/26 11:05:20;;;;;;;;;;;-0.50;89.00;;;;;;5013816;28;20391;-40
2021/12/26 11:07:47;;;;;;;;;;;-0.40;90.10;;;;;;5014072;28;19948;-40
2021/12/26 11:10:17;;;;;;;;;;;-0.30;88.80;;;;;;5014495;28;19905;-39
2021/12/26 11:12:44;;;;;;;;;;;-0.30;90.50;;;;;;5012433;28;19912;-40
2021/12/26 11:15:10;;;;;;;;;;;-0.20;91.80;;;;;;5013982;28;19909;-39
2021/12/26 11:17:38;;;;;;;;;;;-0.10;90.50;;;;;;5014189;28;20003;-40
2021/12/26 11:20:05;;;;;;;;;;;-0.10;89.10;;;;;;5013424;28;19960;-40
2021/12/26 11:22:30;;;;;;;;;;;0.00;87.90;;;;;;5013344;28;19912;-39
2021/12/26 11:24:59;;;;;;;;;;;0.00;90.90;;;;;;5013448;28;19999;-39
2021/12/26 11:27:26;;;;;;;;;;;0.10;90.90;;;;;;5013173;28;19905;-39
2021/12/26 11:29:52;;;;;;;;;;;0.20;91.20;;;;;;5013318;28;19909;-39
2021/12/26 11:32:18;;;;;;;;;;;0.20;88.10;;;;;;5013061;28;19932;-41
2021/12/26 11:34:48;;;;;;;;;;;0.20;88.90;;;;;;5007468;28;19996;-39
2021/12/26 11:37:14;;;;;;;;;;;0.20;86.30;;;;;;5008272;28;19951;-39
2021/12/26 11:39:40;;;;;;;;;;;0.30;87.90;;;;;;5013151;28;19974;-39
2021/12/26 11:42:05;;;;;;;;;;;0.30;87.60;;;;;;5013493;28;20261;-39
2021/12/26 11:44:42;;;;;;;;;;;0.40;87.80;;;;;;5013264;28;20024;-39
2021/12/26 11:47:18;;;;;;;;;;;0.40;88.70;;;;;;5013047;28;19945;-39
2021/12/26 11:50:04;;;;;;;;;;;0.50;84.90;;;;;;5013490;28;20257;-39
2021/12/26 11:52:36;;;;;;;;;;;0.60;87.70;;;;;;5013741;28;19921;-39
2021/12/26 11:55:14;;;;;;;;;;;0.70;90.10;;;;;;5012145;28;19916;-39
2021/12/26 11:57:52;;;;;;;;;;;0.70;89.40;;;;;;5012205;28;19921;-39
2021/12/26 12:00:29;;;;;;;;;;;0.80;90.20;;;;;;5003593;28;20387;-39
2021/12/26 12:03:00;;;;;;;;;;;0.90;88.90;;;;;;5010621;28;19921;-39
2021/12/26 12:05:28;;;;;;;;;;;0.90;90.90;;;;;;5013323;28;19912;-39
2021/12/26 12:07:57;;;;;;;;;;;1.00;89.10;;;;;;5012467;28;19910;-39
2021/12/26 12:10:41;;;;;;;;;;;1.00;90.00;;;;;;5013201;28;19906;-39
2021/12/26 12:13:08;;;;;;;;;;;1.00;90.60;;;;;;5012917;28;19952;-39
2021/12/26 12:15:53;;;;;;;;;;;1.10;90.60;;;;;;5013093;28;19960;-39
2021/12/26 12:18:18;;;;;;;;;;;1.10;90.70;;;;;;5013189;28;19909;-39
2021/12/26 12:20:44;;;;;;;;;;;1.10;90.00;;;;;;5012520;28;19917;-38
2021/12/26 12:23:11;;;;;;;;;;;1.20;89.20;;;;;;5012531;28;19912;-39
2021/12/26 12:25:38;;;;;;;;;;;1.20;90.40;;;;;;5012446;28;19909;-39
2021/12/26 12:28:04;;;;;;;;;;;1.20;90.50;;;;;;5013226;28;19943;-38
2021/12/26 12:30:29;;;;;;;;;;;1.30;90.30;;;;;;5012664;28;19909;-39
2021/12/26 12:33:14;;;;;;;;;;;1.20;90.10;;;;;;5003624;28;20368;-39
2021/12/26 12:35:48;;;;;;;;;;;1.20;90.40;;;;;;5006584;28;19972;-39
2021/12/26 12:38:27;;;;;;;;;;;1.20;89.10;;;;;;5005538;28;19906;-39
2021/12/26 12:40:53;;;;;;;;;;;1.20;90.20;;;;;;5002657;28;19945;-39
2021/12/26 12:43:20;;;;;;;;;;;1.20;90.30;;;;;;5000365;28;21376;-39
2021/12/26 12:45:52;;;;;;;;;;;1.10;89.70;;;;;;4995073;28;20153;-39
2021/12/26 12:48:29;;;;;;;;;;;1.10;86.00;;;;;;4993412;28;19910;-38
2021/12/26 12:50:59;;;;;;;;;;;1.10;86.00;;;;;;5010722;28;19916;-39
2021/12/26 12:53:47;;;;;;;;;;;1.10;88.60;;;;;;5012147;28;19909;-38
2021/12/26 12:56:35;;;;;;;;;;;1.10;89.40;;;;;;4995904;28;19929;-39
2021/12/26 12:59:27;;;;;;;;;;;1.10;90.10;;;;;;4995146;28;19917;-39
2021/12/26 13:01:54;;;;;;;;;;;1.20;89.40;;;;;;5012337;28;19992;-39
2021/12/26 13:04:21;;;;;;;;;;;1.20;86.40;;;;;;5012086;28;19913;-38
2021/12/26 13:06:52;;;;;;;;;;;1.20;87.80;;;;;;5012680;28;19905;-39
2021/12/26 13:09:18;;;;;;;;;;;1.20;87.70;;;;;;5012311;28;19949;-39
2021/12/26 13:11:43;;;;;;;;;;;1.20;90.00;;;;;;5011605;28;20081;-38
2021/12/26 13:14:09;;;;;;;;;;;1.30;90.00;;;;;;5012683;28;19905;-38
2021/12/26 13:16:35;;;;;;;;;;;1.30;90.10;;;;;;5012843;28;20238;-39
2021/12/26 13:19:04;;;;;;;;;;;1.30;89.90;;;;;;5011548;28;20329;-38
2021/12/26 13:21:29;;;;;;;;;;;1.40;90.00;;;;;;5012807;28;19905;-38
2021/12/26 13:23:55;;;;;;;;;;;1.40;87.80;;;;;;5012236;28;19909;-38
2021/12/26 13:26:20;;;;;;;;;;;1.30;85.00;;;;;;5012087;28;19909;-38
2021/12/26 13:28:46;;;;;;;;;;;1.40;88.50;;;;;;5012186;28;20376;-39
2021/12/26 13:31:14;;;;;;;;;;;1.40;86.10;;;;;;5012372;28;19959;-38
2021/12/26 13:33:40;;;;;;;;;;;1.50;89.90;;;;;;5011727;28;19913;-38
2021/12/26 13:36:07;;;;;;;;;;;1.50;90.10;;;;;;5012562;28;19905;-38
2021/12/26 13:38:33;;;;;;;;;;;1.60;90.40;;;;;;5012175;28;20003;-38
2021/12/26 13:40:58;;;;;;;;;;;1.70;90.10;;;;;;5011840;28;19932;-37
2021/12/26 13:43:31;;;;;;;;;;;2.00;90.80;;;;;;5012462;28;20261;-38
2021/12/26 13:45:58;;;;;;;;;;;2.20;90.60;;;;;;5014109;28;19909;-40
2021/12/26 13:48:40;;;;;;;;;;;2.40;90.20;;;;;;5016052;28;19916;-38
2021/12/26 13:51:19;;;;;;;;;;;2.60;90.40;;;;;;5014361;28;19924;-38
2021/12/26 13:53:46;;;;;;;;;;;2.80;90.50;;;;;;5004172;28;19910;-37
2021/12/26 13:56:11;;;;;;;;;;;3.00;89.10;;;;;;5014764;28;19918;-38
2021/12/26 13:58:37;;;;;;;;;;;3.00;88.60;;;;;;5012869;28;20063;-37
2021/12/26 14:01:04;;;;;;;;;;;2.90;87.60;;;;;;5008126;28;19909;-38
2021/12/26 14:03:29;;;;;;;;;;;2.90;88.40;;;;;;5017868;28;20015;-37
2021/12/26 14:05:55;;;;;;;;;;;3.00;88.50;;;;;;5035133;28;20455;-38
2021/12/26 14:08:26;;;;;;;;;;;3.00;88.00;;;;;;5034729;28;19905;-38
2021/12/26 14:10:56;;;;;;;;;;;3.00;87.00;;;;;;5018139;28;19909;-38
2021/12/26 14:13:22;;;;;;;;;;;3.00;88.50;;;;;;5015369;28;19912;-38
2021/12/26 14:15:49;;;;;;;;;;;3.20;89.30;;;;;;5014798;28;19905;-38
2021/12/26 14:18:16;;;;;;;;;;;3.40;88.50;;;;;;5015444;28;20023;-38
2021/12/26 14:20:48;;;;;;;;;;;3.50;86.80;;;;;;5029738;28;20275;-39